Time;durP1;ratioP1;P1;durP2;ratioP2;P2;SDS_P1;SDS_P2;PMS_P1;PMS_P2;Temp;Humidity;BMP_temperature;BMP_pressure;BME280_temperature;BME280_humidity;BME280_pressure;Samples;Min_cycle;Max_cycle;Signal;HPM_P1;HPM_P2
2021/04/28 05:00:36;;;;;;;7.35;6.53;;;;;;;15.40;52.46;94356.72;6098173;23;20017;31
2021/04/28 05:03:02;;;;;;;6.78;6.07;;;;;;;16.31;50.18;94355.72;4943519;28;20057;-75
2021/04/28 05:05:27;;;;;;;7.97;5.82;;;;;;;15.35;51.33;94351.34;4935181;29;20046;-74
2021/04/28 05:07:53;;;;;;;8.30;7.22;;;;;;;16.08;50.21;94368.72;4939987;29;20032;-77
2021/04/28 05:10:18;;;;;;;7.50;6.53;;;;;;;15.84;50.30;94374.78;4918918;29;20027;-75
2021/04/28 05:12:46;;;;;;;7.53;6.70;;;;;;;15.85;50.18;94378.19;4916100;29;20151;-78
2021/04/28 05:15:12;;;;;;;8.60;7.53;;;;;;;14.57;53.62;94387.41;4921031;29;20038;-75
2021/04/28 05:17:38;;;;;;;7.05;6.47;;;;;;;15.85;50.85;94383.41;4918193;29;20035;-74
2021/04/28 05:20:04;;;;;;;10.20;5.93;;;;;;;16.31;48.84;94387.09;4933374;29;20155;-75
2021/04/28 05:22:29;;;;;;;10.88;7.10;;;;;;;18.52;45.03;94392.66;4925946;29;20132;-77
2021/04/28 05:24:55;;;;;;;8.43;7.18;;;;;;;17.97;46.13;94386.25;4932237;29;21057;-77
2021/04/28 05:27:20;;;;;;;8.35;6.88;;;;;;;16.24;48.49;94378.56;4924738;29;20032;-82
2021/04/28 05:29:46;;;;;;;12.05;7.78;;;;;;;16.07;50.23;94385.38;4909716;29;20686;-76
2021/04/28 05:32:11;;;;;;;7.88;7.18;;;;;;;18.70;44.68;94371.47;4935387;29;20042;-77
2021/04/28 05:34:37;;;;;;;8.25;6.18;;;;;;;18.27;44.34;94352.78;4951168;29;20115;-79
2021/04/28 05:37:04;;;;;;;7.38;6.68;;;;;;;18.08;44.63;94349.53;4935452;29;20050;-77
2021/04/28 05:39:32;;;;;;;8.82;7.40;;;;;;;17.20;47.41;94360.13;4934114;29;20027;-75
2021/04/28 05:41:58;;;;;;;8.20;6.45;;;;;;;20.29;41.21;94367.38;4935385;29;20027;-77
2021/04/28 05:44:23;;;;;;;8.05;6.45;;;;;;;19.15;41.88;94363.59;4951473;29;20081;-76
2021/04/28 05:46:48;;;;;;;7.63;6.40;;;;;;;19.30;42.26;94381.41;4951171;29;20094;-77
2021/04/28 05:49:14;;;;;;;6.38;5.70;;;;;;;20.37;39.95;94387.22;4934325;29;20124;-76
2021/04/28 05:51:43;;;;;;;7.28;6.57;;;;;;;22.92;36.49;94387.84;4929017;29;20051;-76
2021/04/28 05:54:09;;;;;;;7.78;6.05;;;;;;;21.01;38.36;94390.81;4934686;29;20031;-76
2021/04/28 05:56:39;;;;;;;8.70;6.43;;;;;;;21.57;38.73;94399.22;4917795;29;20385;-76
2021/04/28 05:59:04;;;;;;;6.82;5.63;;;;;;;20.77;39.17;94405.31;4912295;29;20110;-76
2021/04/28 06:01:30;;;;;;;9.07;7.45;;;;;;;20.67;39.13;94390.19;4895511;29;20143;-76
2021/04/28 06:03:55;;;;;;;7.18;6.57;;;;;;;19.94;39.16;94386.09;4911508;29;20040;-76
2021/04/28 06:06:21;;;;;;;7.82;7.05;;;;;;;21.96;37.82;94376.88;4895012;29;20443;-77
2021/04/28 06:08:46;;;;;;;9.35;6.40;;;;;;;22.10;37.10;94372.69;4876992;29;20036;-78
2021/04/28 06:11:12;;;;;;;7.50;6.43;;;;;;;21.41;37.74;94370.13;4895617;29;20024;-84
2021/04/28 06:13:38;;;;;;;10.23;5.95;;;;;;;22.38;35.88;94359.09;4912315;29;20056;-79
2021/04/28 06:16:04;;;;;;;6.88;6.18;;;;;;;22.66;36.07;94351.84;4912763;29;20055;-77
2021/04/28 06:18:31;;;;;;;7.32;5.78;;;;;;;22.21;36.36;94345.31;4895354;29;20383;-76
2021/04/28 06:20:56;;;;;;;8.77;6.13;;;;;;;18.95;41.73;94344.88;4912575;29;20074;-76
2021/04/28 06:23:22;;;;;;;11.18;6.68;;;;;;;18.35;43.77;94336.69;4913131;29;20517;-76
2021/04/28 06:25:49;;;;;;;6.85;6.22;;;;;;;18.56;44.86;94345.78;4911461;29;20584;-81
2021/04/28 06:28:14;;;;;;;6.80;5.82;;;;;;;19.40;42.95;94342.22;4913743;29;20079;-77
2021/04/28 06:30:41;;;;;;;10.95;6.18;;;;;;;20.94;40.22;94345.44;4894627;29;20029;-76
2021/04/28 06:33:06;;;;;;;6.88;5.20;;;;;;;21.83;39.12;94341.13;4912422;29;20043;-75
2021/04/28 06:35:31;;;;;;;8.52;5.80;;;;;;;21.79;38.04;94347.19;4910818;29;20028;-75
2021/04/28 06:37:57;;;;;;;8.15;5.60;;;;;;;19.82;39.74;94359.13;4912039;29;20035;-77
2021/04/28 06:40:24;;;;;;;8.13;5.63;;;;;;;19.43;42.15;94368.00;4895150;29;20024;-78
2021/04/28 06:42:50;;;;;;;10.80;6.13;;;;;;;18.84;41.93;94364.13;4912966;29;20025;-77
2021/04/28 06:45:16;;;;;;;6.32;5.72;;;;;;;18.17;43.90;94361.22;4911996;29;20039;-74
2021/04/28 06:47:42;;;;;;;6.63;5.18;;;;;;;19.09;42.17;94364.53;4910846;29;20461;-78
2021/04/28 06:50:11;;;;;;;6.30;5.13;;;;;;;18.30;43.52;94370.69;4911672;29;20036;-78
2021/04/28 06:52:40;;;;;;;7.32;5.75;;;;;;;18.76;43.80;94381.03;4910517;29;20114;-75
2021/04/28 06:55:06;;;;;;;6.85;5.28;;;;;;;19.85;41.66;94370.97;4918542;29;20110;-77
2021/04/28 06:57:31;;;;;;;5.80;5.20;;;;;;;21.47;39.03;94378.88;4896463;29;20499;-77
2021/04/28 06:59:57;;;;;;;5.78;5.28;;;;;;;22.48;36.49;94368.91;4897053;29;20168;-76
2021/04/28 07:02:22;;;;;;;8.10;5.95;;;;;;;21.47;37.73;94371.75;4876456;29;20111;-85
2021/04/28 07:04:48;;;;;;;5.60;4.45;;;;;;;20.61;38.83;94379.88;4892312;29;20021;-77
2021/04/28 07:07:13;;;;;;;7.30;6.25;;;;;;;21.31;37.80;94377.16;4892756;29;20028;-76
2021/04/28 07:09:38;;;;;;;8.27;6.47;;;;;;;18.30;44.25;94387.19;4875840;29;20036;-77
2021/04/28 07:12:04;;;;;;;6.15;5.28;;;;;;;17.47;45.78;94376.19;4877397;29;20510;-77
2021/04/28 07:14:30;;;;;;;9.30;6.00;;;;;;;17.37;46.52;94384.59;4875650;29;20379;-77
2021/04/28 07:16:55;;;;;;;6.72;5.95;;;;;;;18.02;46.13;94389.75;4877041;29;20025;-76
2021/04/28 07:19:20;;;;;;;6.38;5.75;;;;;;;18.76;45.59;94391.53;4876122;29;20115;-77
2021/04/28 07:21:46;;;;;;;7.22;5.40;;;;;;;18.54;45.41;94390.59;4892277;29;20032;-76
2021/04/28 07:24:11;;;;;;;6.85;5.50;;;;;;;18.71;45.32;94395.88;4892236;29;20033;-79
2021/04/28 07:26:37;;;;;;;6.13;5.28;;;;;;;17.57;46.75;94389.56;4891211;29;20020;-77
2021/04/28 07:29:02;;;;;;;7.43;5.25;;;;;;;17.55;45.61;94386.38;4876840;29;20039;-87
2021/04/28 07:31:29;;;;;;;8.35;5.32;;;;;;;17.67;46.70;94386.38;4875423;29;20056;-78
2021/04/28 07:33:55;;;;;;;7.13;6.03;;;;;;;17.70;46.97;94388.53;4877192;29;20070;-76
2021/04/28 07:36:21;;;;;;;6.22;5.63;;;;;;;17.76;45.29;94392.84;4875297;29;20483;-76
2021/04/28 07:38:46;;;;;;;7.28;5.30;;;;;;;17.82;47.09;94389.31;4877090;29;20028;-77
2021/04/28 07:41:12;;;;;;;5.90;5.30;;;;;;;17.75;46.10;94391.28;4875709;29;20041;-78
2021/04/28 07:43:37;;;;;;;6.13;5.00;;;;;;;18.32;47.00;94392.22;4876047;29;20025;-78
2021/04/28 07:46:03;;;;;;;5.10;4.70;;;;;;;17.99;45.55;94387.59;4892258;29;20029;-76
2021/04/28 07:48:28;;;;;;;6.70;5.07;;;;;;;17.75;46.82;94396.53;4874949;29;20033;-78
2021/04/28 07:50:54;;;;;;;9.75;5.15;;;;;;;18.03;46.26;94403.66;4876964;29;20702;-77
2021/04/28 07:53:19;;;;;;;7.95;5.13;;;;;;;17.68;46.36;94394.00;4875072;29;20057;-77
2021/04/28 07:55:46;;;;;;;11.50;5.28;;;;;;;17.69;46.57;94387.72;4876442;29;20032;-77
2021/04/28 07:58:18;;;;;;;5.97;5.38;;;;;;;18.35;46.67;94381.25;4875380;29;20032;-80
2021/04/28 08:00:44;;;;;;;5.78;5.13;;;;;;;17.89;46.63;94382.13;4876520;29;20028;-77
2021/04/28 08:03:09;;;;;;;12.40;5.60;;;;;;;18.35;46.14;94389.94;4876025;29;20048;-77
2021/04/28 08:05:35;;;;;;;8.73;5.13;;;;;;;18.51;46.03;94398.13;4875102;29;20108;-78
2021/04/28 08:08:00;;;;;;;5.65;4.95;;;;;;;18.28;46.06;94393.69;4875977;29;20028;-77
2021/04/28 08:10:26;;;;;;;5.45;4.13;;;;;;;19.25;44.67;94392.66;4874832;29;20043;-77
2021/04/28 08:12:51;;;;;;;5.28;4.40;;;;;;;18.67;45.58;94390.31;4875911;29;20156;-77
2021/04/28 08:15:17;;;;;;;7.50;4.80;;;;;;;18.58;45.93;94383.06;4890393;29;20033;-78
2021/04/28 08:17:42;;;;;;;6.60;5.28;;;;;;;18.40;45.84;94376.09;4876441;29;20084;-77
2021/04/28 08:20:09;;;;;;;5.63;5.10;;;;;;;18.32;46.58;94381.72;4890986;29;20069;-79
2021/04/28 08:22:34;;;;;;;7.50;5.20;;;;;;;18.11;47.72;94377.13;4875566;29;20478;-77
2021/04/28 08:25:00;;;;;;;6.28;4.60;;;;;;;18.51;45.17;94385.00;4876414;29;20053;-77
2021/04/28 08:27:26;;;;;;;5.95;4.80;;;;;;;18.44;44.93;94382.47;4889948;29;20612;-77
2021/04/28 08:29:51;;;;;;;5.57;4.28;;;;;;;18.62;46.25;94387.56;4876186;29;20029;-77
2021/04/28 08:32:17;;;;;;;6.72;5.55;;;;;;;18.98;44.64;94383.78;4874335;29;20521;-77
2021/04/28 08:34:43;;;;;;;4.85;3.80;;;;;;;19.33;43.92;94378.31;4891244;29;20103;-78
2021/04/28 08:37:09;;;;;;;6.47;3.90;;;;;;;19.32;44.40;94374.91;4893012;29;20103;-76
2021/04/28 08:39:34;;;;;;;7.07;4.72;;;;;;;18.99;45.78;94374.88;4894568;29;20561;-78
2021/04/28 08:42:00;;;;;;;4.75;4.28;;;;;;;19.72;45.68;94366.84;4879077;29;20028;-77
2021/04/28 08:44:26;;;;;;;4.90;4.28;;;;;;;19.04;43.84;94361.81;4893352;29;20035;-77
2021/04/28 08:46:51;;;;;;;6.50;4.40;;;;;;;19.00;45.30;94367.78;4894588;29;20417;-76
2021/04/28 08:49:17;;;;;;;4.50;4.10;;;;;;;19.17;45.12;94364.13;4893005;29;20506;-77
2021/04/28 08:51:42;;;;;;;4.88;3.65;;;;;;;19.65;46.53;94365.47;4910464;29;20508;-77
2021/04/28 08:54:08;;;;;;;5.35;4.05;;;;;;;19.71;44.08;94367.13;4893162;29;20032;-77
2021/04/28 08:56:33;;;;;;;4.80;4.15;;;;;;;19.39;43.50;94364.25;4878756;29;20020;-76
2021/04/28 08:59:04;;;;;;;4.10;3.70;;;;;;;20.22;45.23;94373.84;4911047;29;20032;-78
2021/04/28 09:01:36;;;;;;;5.95;3.85;;;;;;;19.61;43.39;94361.72;4894050;29;20044;-77
2021/04/28 09:04:14;;;;;;;5.43;4.38;;;;;;;19.02;46.10;94363.09;4894817;29;20107;-79
2021/04/28 09:06:39;;;;;;;4.70;4.07;;;;;;;19.06;45.72;94370.28;4878936;29;20024;-84
2021/04/28 09:09:13;;;;;;;4.93;3.95;;;;;;;19.64;44.90;94362.03;4894376;29;20063;-78
2021/04/28 09:11:47;;;;;;;6.65;4.45;;;;;;;19.44;45.51;94361.72;4893466;29;20511;-77
2021/04/28 09:14:14;;;;;;;4.00;3.60;;;;;;;19.34;45.70;94356.28;4909367;29;20120;-78
2021/04/28 09:16:41;;;;;;;7.95;4.57;;;;;;;19.65;44.24;94358.34;4910225;29;20092;-77
2021/04/28 09:19:08;;;;;;;4.68;4.13;;;;;;;18.97;44.48;94363.81;4878016;29;20098;-88
2021/04/28 09:21:50;;;;;;;4.25;3.78;;;;;;;18.51;45.54;94364.03;4894546;29;20112;-79
2021/04/28 09:24:20;;;;;;;4.38;3.97;;;;;;;19.19;45.60;94354.22;4895287;29;20034;-77
2021/04/28 09:26:45;;;;;;;4.03;3.58;;;;;;;18.97;45.15;94348.06;4897697;29;20035;-75
2021/04/28 09:29:16;;;;;;;5.30;3.28;;;;;;;19.05;45.01;94352.91;4912930;29;20474;-76
2021/04/28 09:31:55;;;;;;;5.47;4.35;;;;;;;19.02;45.37;94345.53;4897291;29;20536;-76
2021/04/28 09:34:25;;;;;;;4.78;3.72;;;;;;;18.88;45.79;94345.03;4913318;29;20047;-77
2021/04/28 09:36:58;;;;;;;7.53;4.50;;;;;;;18.91;45.84;94346.41;4896075;29;20083;-88
2021/04/28 09:39:23;;;;;;;4.57;3.78;;;;;;;18.72;45.26;94347.63;4898710;29;20091;-83
2021/04/28 09:41:54;;;;;;;4.80;4.32;;;;;;;19.13;45.93;94334.16;4911975;29;20438;-81
2021/04/28 09:44:19;;;;;;;4.47;4.07;;;;;;;18.95;46.05;94331.75;4882651;29;20577;-76
2021/04/28 09:47:05;;;;;;;5.03;4.22;;;;;;;19.39;45.37;94323.00;4914079;29;20032;-78
2021/04/28 09:49:58;;;;;;;6.30;4.53;;;;;;;19.56;45.09;94317.75;4911509;29;20044;-78
2021/04/28 09:52:29;;;;;;;7.65;4.05;;;;;;;19.94;44.84;94315.09;4898606;29;20032;-78
2021/04/28 09:54:57;;;;;;;4.72;3.97;;;;;;;19.28;44.93;94302.88;4913386;29;20035;-76
2021/04/28 09:57:53;;;;;;;6.18;3.75;;;;;;;19.09;45.78;94300.75;4912524;29;20020;-79
2021/04/28 10:00:27;;;;;;;5.75;4.10;;;;;;;19.46;44.41;94307.91;4897069;29;20047;-77
2021/04/28 10:03:00;;;;;;;4.47;4.07;;;;;;;19.48;44.16;94299.00;4911216;29;20079;-78
2021/04/28 10:05:34;;;;;;;5.63;4.20;;;;;;;19.79;43.96;94301.78;4881395;29;20024;-77
2021/04/28 10:08:07;;;;;;;4.55;4.10;;;;;;;20.06;44.65;94304.50;4896486;29;20506;-78
2021/04/28 10:10:32;;;;;;;4.45;3.97;;;;;;;20.24;43.98;94298.09;4894334;29;20521;-79
2021/04/28 10:12:58;;;;;;;4.72;3.92;;;;;;;20.27;43.79;94303.69;4892365;29;20023;-77
2021/04/28 10:15:23;;;;;;;4.65;4.03;;;;;;;20.74;43.23;94292.63;4887452;29;20029;-77
2021/04/28 10:17:49;;;;;;;4.53;3.60;;;;;;;20.70;43.30;94302.03;4885217;29;20109;-76
2021/04/28 10:20:14;;;;;;;5.93;3.72;;;;;;;21.38;44.72;94298.69;4881047;29;20033;-77
2021/04/28 10:22:40;;;;;;;8.63;3.55;;;;;;;20.66;44.47;94290.41;4893000;29;20028;-77
2021/04/28 10:25:07;;;;;;;6.82;4.05;;;;;;;20.75;43.08;94281.03;4885551;29;20056;-78
2021/04/28 10:27:32;;;;;;;5.63;4.20;;;;;;;20.57;43.14;94279.56;4885379;29;20672;-77
2021/04/28 10:29:57;;;;;;;5.55;4.03;;;;;;;20.24;44.33;94283.13;4886585;29;20055;-77
2021/04/28 10:32:23;;;;;;;4.60;4.05;;;;;;;20.42;44.30;94289.94;4888119;29;20076;-75
2021/04/28 10:34:52;;;;;;;4.43;3.95;;;;;;;20.63;44.78;94281.19;4877498;29;20028;-77
2021/04/28 10:37:21;;;;;;;5.05;4.20;;;;;;;20.04;45.64;94282.88;4876483;29;20044;-77
2021/04/28 10:39:48;;;;;;;9.95;4.10;;;;;;;19.83;45.40;94270.56;4877746;29;20068;-76
2021/04/28 10:42:27;;;;;;;4.65;4.20;;;;;;;20.18;45.59;94270.97;4876316;29;20033;-77
2021/04/28 10:44:52;;;;;;;7.68;4.18;;;;;;;20.16;44.88;94269.63;4877955;29;20035;-80
2021/04/28 10:47:25;;;;;;;6.55;4.03;;;;;;;19.95;46.18;94271.22;4893030;29;20053;-77
2021/04/28 10:50:01;;;;;;;5.97;4.60;;;;;;;19.94;46.48;94274.88;4876295;29;20124;-81
2021/04/28 10:53:01;;;;;;;4.82;4.30;;;;;;;20.23;46.20;94263.13;4893248;29;20073;-77
2021/04/28 10:55:54;;;;;;;4.53;3.70;;;;;;;20.28;42.76;94271.09;4906420;29;20029;-77
2021/04/28 10:58:29;;;;;;;4.43;3.70;;;;;;;20.39;44.39;94262.25;4922520;29;20032;-76
2021/04/28 11:03:38;;;;;;;5.57;3.97;;;;;;;20.29;45.73;94256.88;4929038;29;20043;-77
2021/04/28 11:06:29;;;;;;;6.53;4.15;;;;;;;20.61;46.31;94266.69;4915999;29;20027;-78
2021/04/28 11:08:54;;;;;;;4.20;3.30;;;;;;;20.52;44.09;94259.22;4931499;29;20255;-78
2021/04/28 11:11:39;;;;;;;5.25;4.05;;;;;;;20.07;45.59;94256.09;4930687;29;20034;-77
2021/04/28 11:14:29;;;;;;;5.50;4.43;;;;;;;20.13;45.22;94256.97;4932370;29;20035;-77
2021/04/28 11:17:21;;;;;;;4.82;4.13;;;;;;;19.98;45.35;94247.06;4912765;29;20071;-77
2021/04/28 11:19:51;;;;;;;4.97;3.88;;;;;;;20.48;45.11;94241.56;4913775;29;20028;-79
2021/04/28 11:22:17;;;;;;;;;;;;;;;20.16;45.85;94241.50;4900815;29;20447;-76
2021/04/28 11:25:02;;;;;;;4.13;3.53;;;;;;;20.85;44.90;94247.69;4928578;29;19915;-78
2021/04/28 11:27:55;;;;;;;6.65;3.10;;;;;;;21.43;43.25;94244.16;4931723;29;20067;-79
2021/04/28 11:30:27;;;;;;;4.20;3.80;;;;;;;20.90;43.83;94239.03;4931082;29;20072;-78
2021/04/28 11:33:12;;;;;;;4.50;3.67;;;;;;;20.91;44.33;94235.34;4882811;29;20486;-80
2021/04/28 11:35:45;;;;;;;5.97;3.92;;;;;;;20.50;43.79;94245.53;4914108;29;20043;-80
2021/04/28 11:38:16;;;;;;;5.88;4.00;;;;;;;20.75;43.61;94238.91;4897386;29;20028;-78
2021/04/28 11:41:08;;;;;;;3.38;2.97;;;;;;;21.64;42.44;94245.03;4898641;29;20130;-79
2021/04/28 11:43:41;;;;;;;4.00;3.65;;;;;;;21.10;43.21;94239.19;4930003;29;20036;-77
2021/04/28 11:46:13;;;;;;;5.03;4.03;;;;;;;20.59;44.55;94229.28;4881481;29;20086;-76
2021/04/28 11:48:40;;;;;;;8.45;4.20;;;;;;;21.04;45.06;94221.75;4931394;29;20020;-77
2021/04/28 11:51:08;;;;;;;7.93;4.43;;;;;;;20.79;44.40;94221.56;4896754;29;20028;-78
2021/04/28 11:53:43;;;;;;;7.53;3.65;;;;;;;20.78;44.17;94212.06;4914366;29;20098;-78
2021/04/28 11:56:09;;;;;;;5.82;3.40;;;;;;;21.25;43.52;94218.25;4898424;29;20031;-78
2021/04/28 11:58:34;;;;;;;3.55;3.25;;;;;;;20.98;43.63;94223.56;4897655;29;20031;-77
2021/04/28 12:01:04;;;;;;;5.45;4.35;;;;;;;20.77;44.30;94211.31;4897811;29;20038;-77
2021/04/28 12:03:49;;;;;;;5.68;3.63;;;;;;;20.62;45.38;94199.84;4912432;29;20055;-79
2021/04/28 12:06:28;;;;;;;4.90;4.05;;;;;;;21.17;43.76;94191.56;4900767;29;20504;-79
2021/04/28 12:09:16;;;;;;;8.88;4.32;;;;;;;20.72;45.19;94200.72;4912462;29;20039;-80
2021/04/28 12:11:45;;;;;;;3.58;3.28;;;;;;;20.68;45.05;94193.59;4914653;29;20032;-78
2021/04/28 12:14:11;;;;;;;4.35;3.95;;;;;;;21.01;44.55;94190.66;4913796;29;20127;-77
2021/04/28 12:16:41;;;;;;;4.82;4.30;;;;;;;20.90;44.85;94195.03;4896346;29;20102;-77
2021/04/28 12:19:12;;;;;;;5.82;4.30;;;;;;;20.70;45.44;94183.59;4901559;29;20042;-79
2021/04/28 12:21:49;;;;;;;8.80;4.63;;;;;;;20.85;44.93;94189.75;4896624;29;20043;-75
2021/04/28 12:24:23;;;;;;;5.05;4.63;;;;;;;20.73;44.97;94193.63;4892145;29;20103;-78
2021/04/28 12:27:21;;;;;;;7.15;4.32;;;;;;;20.97;44.91;94186.94;4879260;29;20042;-77
2021/04/28 12:29:51;;;;;;;4.73;4.33;;;;;;;21.10;45.01;94197.06;4882859;29;20461;-78
2021/04/28 12:32:17;;;;;;;5.47;4.28;;;;;;;20.28;46.48;94201.91;4895034;29;20107;-75
2021/04/28 12:34:43;;;;;;;5.30;4.78;;;;;;;20.55;45.79;94200.03;4878521;29;20449;-77
2021/04/28 12:37:12;;;;;;;5.32;4.82;;;;;;;20.58;45.09;94188.25;4878906;29;20090;-78
2021/04/28 12:39:37;;;;;;;6.72;4.60;;;;;;;21.03;45.19;94199.09;4879866;29;20052;-81
2021/04/28 12:42:03;;;;;;;5.43;4.93;;;;;;;21.14;45.36;94199.97;4882232;29;20398;-79
2021/04/28 12:44:29;;;;;;;6.32;4.85;;;;;;;20.88;45.09;94177.91;4914001;29;20090;-80
2021/04/28 12:46:54;;;;;;;5.45;4.47;;;;;;;21.22;45.91;94183.72;4896085;29;20040;-79
2021/04/28 12:49:23;;;;;;;6.57;5.85;;;;;;;20.98;46.01;94175.34;4898243;29;20386;-80
2021/04/28 12:51:51;;;;;;;6.33;4.97;;;;;;;20.36;45.56;94193.56;4896355;29;20036;-81
2021/04/28 12:54:32;;;;;;;6.15;5.13;;;;;;;20.95;46.41;94181.13;4898723;29;20023;-80
2021/04/28 12:56:58;;;;;;;6.47;4.75;;;;;;;20.36;47.37;94194.34;4913124;29;20032;-84
2021/04/28 12:59:24;;;;;;;5.63;5.13;;;;;;;20.10;47.51;94178.56;4894055;29;20066;-78
2021/04/28 13:02:04;;;;;;;5.80;5.18;;;;;;;19.61;47.58;94183.03;4898162;29;20498;-79
2021/04/28 13:04:29;;;;;;;;;;;;;;;20.05;45.89;94189.81;4882496;29;20036;-79
2021/04/28 13:07:11;;;;;;;6.30;4.90;;;;;;;20.37;46.91;94185.44;4898428;29;19955;-81
2021/04/28 13:09:36;;;;;;;5.97;5.07;;;;;;;20.39;45.87;94187.78;4897820;29;20032;-83
2021/04/28 13:12:02;;;;;;;4.40;4.00;;;;;;;20.47;45.86;94164.47;4895860;29;20051;-81
2021/04/28 13:14:49;;;;;;;5.97;4.25;;;;;;;20.70;45.22;94175.69;4898695;29;20035;-80
2021/04/28 13:17:15;;;;;;;5.15;4.63;;;;;;;20.66;46.35;94169.34;4887443;29;20036;-81
2021/04/28 13:19:41;;;;;;;8.93;4.50;;;;;;;20.87;45.30;94160.56;4891188;29;20038;-79
2021/04/28 13:22:15;;;;;;;7.88;4.80;;;;;;;20.75;44.87;94158.09;4886280;29;20039;-81
2021/04/28 13:24:48;;;;;;;4.82;4.32;;;;;;;20.73;44.45;94154.13;4884503;29;20450;-81
2021/04/28 13:27:25;;;;;;;5.20;4.70;;;;;;;20.78;45.54;94156.78;4882440;29;20091;-83
2021/04/28 13:30:18;;;;;;;7.13;4.78;;;;;;;20.45;46.04;94157.88;4896258;29;20481;-80
2021/04/28 13:32:45;;;;;;;5.90;5.20;;;;;;;20.54;46.41;94161.63;4916676;29;20059;-81
2021/04/28 13:35:23;;;;;;;7.32;5.22;;;;;;;20.16;46.28;94159.16;4910142;29;20478;-84
2021/04/28 13:37:51;;;;;;;5.10;4.60;;;;;;;20.35;45.60;94155.16;4911991;29;20051;-79
2021/04/28 13:40:24;;;;;;;4.88;4.47;;;;;;;20.44;45.23;94157.09;4925396;29;20032;-79
2021/04/28 13:42:54;;;;;;;5.80;5.30;;;;;;;20.15;46.33;94152.31;4913782;29;20019;-82
2021/04/28 13:45:21;;;;;;;5.40;4.95;;;;;;;19.95;46.84;94147.66;4898568;29;20028;-83
2021/04/28 13:47:46;;;;;;;5.82;5.25;;;;;;;19.61;47.51;94146.25;4894921;29;20119;-79
2021/04/28 13:50:12;;;;;;;5.68;5.18;;;;;;;19.45;49.01;94140.84;4895164;29;20031;-77
2021/04/28 13:52:38;;;;;;;8.20;5.75;;;;;;;20.09;47.41;94133.06;4904991;29;20029;-77
2021/04/28 13:55:05;;;;;;;6.15;5.55;;;;;;;19.61;48.73;94130.47;4897491;29;20032;-77
2021/04/28 13:57:31;;;;;;;6.10;5.50;;;;;;;19.83;47.61;94144.38;4915389;29;20078;-77
2021/04/28 13:59:56;;;;;;;8.88;5.00;;;;;;;20.03;47.74;94128.03;4893221;29;20023;-76
2021/04/28 14:02:22;;;;;;;6.25;5.65;;;;;;;19.57;48.64;94143.31;4896270;29;20043;-76
2021/04/28 14:04:47;;;;;;;5.80;5.32;;;;;;;19.38;49.77;94145.44;4895845;29;20036;-76
2021/04/28 14:07:13;;;;;;;6.68;5.65;;;;;;;19.13;49.97;94153.00;4896875;29;20031;-75
2021/04/28 14:09:41;;;;;;;6.78;6.07;;;;;;;19.10;49.67;94119.38;4910625;29;20027;-77
2021/04/28 14:12:06;;;;;;;5.80;5.30;;;;;;;19.20;50.23;94122.09;4878817;29;20475;-76
2021/04/28 14:14:32;;;;;;;7.28;6.40;;;;;;;19.11;50.23;94122.75;4893314;29;20119;-76
2021/04/28 14:16:57;;;;;;;13.27;6.07;;;;;;;19.36;50.88;94131.72;4892971;29;20048;-76
2021/04/28 14:19:23;;;;;;;5.90;4.88;;;;;;;19.26;50.53;94136.91;4893441;29;20032;-76
2021/04/28 14:21:48;;;;;;;5.95;5.45;;;;;;;19.14;51.07;94141.44;4876743;29;20029;-76
2021/04/28 14:24:15;;;;;;;7.80;5.30;;;;;;;19.19;51.23;94154.66;4893822;29;20074;-76
2021/04/28 14:26:41;;;;;;;9.27;5.65;;;;;;;18.96;51.51;94149.63;4893524;29;20401;-76
2021/04/28 14:29:06;;;;;;;7.63;6.10;;;;;;;19.02;51.92;94156.50;4877923;29;20032;-77
2021/04/28 14:31:32;;;;;;;6.20;5.70;;;;;;;18.64;52.42;94162.53;4892111;29;20032;-76
2021/04/28 14:33:57;;;;;;;6.30;5.70;;;;;;;18.59;52.75;94164.31;4893337;29;20037;-76
2021/04/28 14:36:23;;;;;;;9.00;6.10;;;;;;;18.46;53.34;94159.34;4877650;29;20024;-76
2021/04/28 14:38:48;;;;;;;8.35;5.90;;;;;;;18.25;54.72;94156.38;4892469;29;20032;-76
2021/04/28 14:41:14;;;;;;;7.97;6.95;;;;;;;18.14;54.61;94172.19;4876790;29;20066;-76
2021/04/28 14:43:40;;;;;;;8.75;7.95;;;;;;;18.03;54.74;94160.72;4890581;29;20410;-75
2021/04/28 14:46:06;;;;;;;9.52;6.88;;;;;;;17.83;54.92;94169.03;4892894;29;20036;-76
2021/04/28 14:48:32;;;;;;;6.70;6.07;;;;;;;17.93;54.83;94160.53;4891336;29;20021;-76
2021/04/28 14:51:01;;;;;;;8.27;5.93;;;;;;;17.90;54.83;94164.44;4893346;29;20039;-83
2021/04/28 14:53:27;;;;;;;6.95;6.00;;;;;;;17.71;54.69;94181.38;4887581;29;20579;-78
2021/04/28 14:55:52;;;;;;;7.00;6.15;;;;;;;17.74;55.43;94208.91;4893858;29;20036;-78
2021/04/28 14:58:18;;;;;;;8.45;6.50;;;;;;;17.61;55.19;94219.66;4912044;29;20036;-78
2021/04/28 15:00:43;;;;;;;8.80;7.10;;;;;;;17.44;56.01;94222.16;4894343;29;20120;-78
2021/04/28 15:03:09;;;;;;;11.98;6.75;;;;;;;17.24;56.54;94227.78;4896093;29;20414;-81
2021/04/28 15:05:34;;;;;;;7.70;6.35;;;;;;;17.14;57.37;94247.72;4894328;29;20485;-78
2021/04/28 15:08:00;;;;;;;11.32;6.95;;;;;;;17.00;57.37;94256.81;4895862;29;20039;-78
2021/04/28 15:10:25;;;;;;;7.65;6.88;;;;;;;16.89;58.35;94263.59;4894382;29;20042;-78
2021/04/28 15:12:50;;;;;;;7.95;7.15;;;;;;;16.71;58.82;94284.63;4911205;29;20028;-82
2021/04/28 15:15:16;;;;;;;12.05;7.35;;;;;;;16.61;59.91;94295.63;4895560;29;20467;-77
2021/04/28 15:17:41;;;;;;;11.18;8.48;;;;;;;16.53;60.25;94316.06;4909934;29;20028;-80
2021/04/28 15:20:07;;;;;;;10.82;8.90;;;;;;;16.43;60.77;94292.25;4896779;29;20036;-79
2021/04/28 15:22:33;;;;;;;10.38;7.53;;;;;;;16.47;61.22;94267.28;4903840;29;20033;-78
2021/04/28 15:24:58;;;;;;;12.32;8.70;;;;;;;16.33;62.56;94257.00;4906251;29;20032;-79
2021/04/28 15:27:24;;;;;;;12.60;8.88;;;;;;;16.27;62.50;94257.91;4884711;29;20117;-80
2021/04/28 15:29:49;;;;;;;9.73;8.73;;;;;;;16.21;63.50;94279.66;4898058;29;20054;-80
2021/04/28 15:32:16;;;;;;;12.57;8.18;;;;;;;16.09;63.84;94291.91;4888278;29;20411;-79
2021/04/28 15:34:42;;;;;;;9.88;8.95;;;;;;;16.09;64.20;94302.34;4884153;29;20120;-80
2021/04/28 15:37:09;;;;;;;15.68;8.45;;;;;;;16.11;64.66;94313.41;4892465;29;20060;-81
2021/04/28 15:39:35;;;;;;;12.95;11.63;;;;;;;14.76;69.41;94301.28;4883428;29;20032;-83
2021/04/28 15:42:00;;;;;;;12.55;11.27;;;;;;;14.84;71.17;94299.41;4895629;29;20509;-83
2021/04/28 15:44:27;;;;;;;12.15;11.05;;;;;;;14.66;71.53;94313.19;4893923;29;20044;-85
2021/04/28 15:46:54;;;;;;;15.85;14.20;;;;;;;14.32;72.71;94316.19;4895359;29;20036;-82
2021/04/28 15:49:20;;;;;;;14.25;12.93;;;;;;;13.80;75.13;94293.78;4904442;29;20462;-82
2021/04/28 15:51:46;;;;;;;14.80;13.40;;;;;;;13.67;78.08;94277.22;4891599;29;20037;-82
2021/04/28 15:54:11;;;;;;;14.35;13.05;;;;;;;13.96;77.58;94262.88;4876529;29;20029;-82
2021/04/28 15:56:37;;;;;;;13.70;11.85;;;;;;;13.98;75.41;94289.50;4890400;29;20565;-82
2021/04/28 15:59:02;;;;;;;15.68;14.20;;;;;;;13.78;76.62;94324.41;4876656;29;20048;-83
2021/04/28 16:01:28;;;;;;;16.08;14.48;;;;;;;13.49;76.64;94349.13;4878039;29;20046;-82
2021/04/28 16:03:54;;;;;;;16.75;14.48;;;;;;;13.08;78.02;94344.97;4895353;29;20119;-84
2021/04/28 16:06:19;;;;;;;15.90;14.48;;;;;;;13.20;78.07;94348.56;4893465;29;20036;-81
2021/04/28 16:08:45;;;;;;;15.73;14.18;;;;;;;13.52;77.67;94341.72;4894974;29;20080;-80
2021/04/28 16:11:10;;;;;;;14.45;13.05;;;;;;;13.62;78.02;94330.88;4910106;29;20035;-79
2021/04/28 16:13:36;;;;;;;15.68;12.82;;;;;;;13.61;78.26;94339.72;4894143;29;20096;-81
2021/04/28 16:16:01;;;;;;;13.77;12.35;;;;;;;13.64;78.29;94339.28;4893153;29;20040;-81
2021/04/28 16:18:27;;;;;;;14.88;12.23;;;;;;;13.72;78.18;94332.06;4878806;29;20028;-81
2021/04/28 16:20:52;;;;;;;14.98;13.48;;;;;;;13.78;77.17;94324.41;4894554;29;20036;-81
2021/04/28 16:23:18;;;;;;;13.73;12.38;;;;;;;13.66;77.25;94319.06;4876256;29;20043;-81
2021/04/28 16:25:43;;;;;;;14.27;12.93;;;;;;;13.57;79.27;94323.69;4875964;29;20076;-80
2021/04/28 16:28:09;;;;;;;14.77;12.95;;;;;;;13.54;78.64;94315.50;4875655;29;20044;-81
2021/04/28 16:30:35;;;;;;;14.10;12.68;;;;;;;13.71;78.37;94324.44;4894586;29;20043;-81
2021/04/28 16:33:02;;;;;;;15.68;12.75;;;;;;;13.63;79.94;94320.28;4896059;29;20055;-81
2021/04/28 16:35:27;;;;;;;15.05;13.55;;;;;;;13.71;80.66;94345.25;4879299;29;20040;-81
2021/04/28 16:37:53;;;;;;;18.75;13.93;;;;;;;13.49;82.44;94360.31;4879676;29;20084;-81
2021/04/28 16:40:18;;;;;;;14.57;13.18;;;;;;;13.48;82.93;94363.94;4880894;29;20443;-81